Etusivu
METAR-TAF:

METAR-TAF

Lentoasemat :

Annaba, Algeria

Leveyspiiri: 36-50N, Pituuspiiri: 007-49E, korkeus merenpinnasta: 4 m

Tämänhetkinen sää

Tämä raportti tehtiin 53 minuuttia sitten, kello 10.00 UTC
Tuuli 11 kn koillisesta
Lämpötila 29°C
Kosteus 74%
Ilmanpaine 1011 hPa
Näkyvyys 10 km tai enemmän
ei pilviä alle 1500 m:ssä eikä cumulonimbus-pilviä

METAR: DABB 121000Z 04011KT CAVOK 29/24 Q1011

Aika: 11:53 (10:53 UTC)

Sääennuste

Tämä raportti tehtiin 5 tuntia ja 53 minuuttia sitten, kello 05.00 UTC
Ennuste voimassa 12. päivästä klo 06 UTC - 13. päivään klo 06 UTC
Tuuli 9 kn koillisesta
Näkyvyys: 0800 m
Muutamia pilviä 1000 ft:n korkeudessa
sumua
Tulossa
12. päivästä klo 07 UTC - 12. päivään klo 09 UTC
Näkyvyys: 7000 m

TAF: DABB 120500Z 1206/1306 04009KT 0800 FG FEW010 BECMG 1207/1209 7000 NSW

Säähavainnot ja -ennusteet yli 4000 lentoasemalta (METAR- ja TAF-raportit).

Käytössä olevat sääasemat on merkitty karttaan keltaisilla ja punaisilla pisteillä.

Aseta hiiri pisteen päälle nähdäksesi sääaseman nimen.

Klikkaa sitten nähdäksesi säähavainnot ja -ennusteet.

Kartan vaihtaminen: klikkaa mustalla rastilla varustettuja vihreitä pisteitä, niin voit zoomata sisään; viivalla varustettua vihreää pistettä, niin voit zoomata ulos tai vihreitä nuolia, niin pääset viereisille kartoille.


METAR-TAF: